sensor_id;sensor_type;location;lat;lon;timestamp;pressure;altitude;pressure_sealevel;temperature;humidity
46392;BME280;32098;49.448;7.904;2024-03-08T00:00:59;98049.25;;;5.23;68.91
46392;BME280;32098;49.448;7.904;2024-03-08T00:03:26;98058.22;;;5.29;68.60
46392;BME280;32098;49.448;7.904;2024-03-08T00:05:53;98057.09;;;5.17;69.02
46392;BME280;32098;49.448;7.904;2024-03-08T00:08:20;98053.94;;;5.07;68.92
46392;BME280;32098;49.448;7.904;2024-03-08T00:10:46;98049.44;;;5.22;68.90
46392;BME280;32098;49.448;7.904;2024-03-08T00:13:13;98054.16;;;4.91;69.51
46392;BME280;32098;49.448;7.904;2024-03-08T00:15:39;98055.31;;;5.03;69.35
46392;BME280;32098;49.448;7.904;2024-03-08T00:18:07;98043.88;;;4.96;69.37
46392;BME280;32098;49.448;7.904;2024-03-08T00:20:34;98038.88;;;5.01;69.23
46392;BME280;32098;49.448;7.904;2024-03-08T00:23:01;98042.84;;;4.97;69.60
46392;BME280;32098;49.448;7.904;2024-03-08T00:25:27;98033.31;;;4.96;69.67
46392;BME280;32098;49.448;7.904;2024-03-08T00:27:54;98032.88;;;4.77;69.76
46392;BME280;32098;49.448;7.904;2024-03-08T00:30:23;98024.06;;;4.70;70.09
46392;BME280;32098;49.448;7.904;2024-03-08T00:32:52;98033.31;;;4.66;70.20
46392;BME280;32098;49.448;7.904;2024-03-08T00:35:19;98027.16;;;4.59;70.75
46392;BME280;32098;49.448;7.904;2024-03-08T00:37:45;98030.16;;;4.56;70.80
46392;BME280;32098;49.448;7.904;2024-03-08T00:40:13;98026.19;;;4.46;70.99
46392;BME280;32098;49.448;7.904;2024-03-08T00:42:40;98021.06;;;4.59;71.02
46392;BME280;32098;49.448;7.904;2024-03-08T00:45:08;98023.81;;;4.65;70.39
46392;BME280;32098;49.448;7.904;2024-03-08T00:47:36;98019.25;;;4.59;70.27
46392;BME280;32098;49.448;7.904;2024-03-08T00:50:04;98022.91;;;4.58;70.62
46392;BME280;32098;49.448;7.904;2024-03-08T00:52:31;98012.09;;;4.53;70.56
46392;BME280;32098;49.448;7.904;2024-03-08T00:54:57;98011.63;;;4.50;70.73
46392;BME280;32098;49.448;7.904;2024-03-08T00:57:24;98013.63;;;4.62;70.56
46392;BME280;32098;49.448;7.904;2024-03-08T00:59:51;98012.63;;;4.49;70.63
46392;BME280;32098;49.448;7.904;2024-03-08T01:02:19;98000.47;;;4.18;71.63
46392;BME280;32098;49.448;7.904;2024-03-08T01:04:47;98005.84;;;4.25;71.59
46392;BME280;32098;49.448;7.904;2024-03-08T01:07:14;98000.38;;;4.12;71.92
46392;BME280;32098;49.448;7.904;2024-03-08T01:09:41;97996.22;;;4.03;72.26
46392;BME280;32098;49.448;7.904;2024-03-08T01:12:08;97981.59;;;4.00;72.57
46392;BME280;32098;49.448;7.904;2024-03-08T01:14:34;98000.19;;;3.99;72.29
46392;BME280;32098;49.448;7.904;2024-03-08T01:17:01;97994.13;;;3.98;72.17
46392;BME280;32098;49.448;7.904;2024-03-08T01:19:28;97998.94;;;3.95;72.23
46392;BME280;32098;49.448;7.904;2024-03-08T01:21:55;97992.22;;;4.07;71.79
46392;BME280;32098;49.448;7.904;2024-03-08T01:24:23;97988.94;;;3.76;72.32
46392;BME280;32098;49.448;7.904;2024-03-08T01:26:49;97987.56;;;3.94;72.17
46392;BME280;32098;49.448;7.904;2024-03-08T01:29:16;97982.16;;;3.96;72.12
46392;BME280;32098;49.448;7.904;2024-03-08T01:31:43;97990.75;;;3.90;72.24
46392;BME280;32098;49.448;7.904;2024-03-08T01:34:10;97974.66;;;3.70;72.97
46392;BME280;32098;49.448;7.904;2024-03-08T01:36:37;97979.94;;;3.70;72.84
46392;BME280;32098;49.448;7.904;2024-03-08T01:39:06;97972.88;;;3.85;72.54
46392;BME280;32098;49.448;7.904;2024-03-08T01:41:35;97972.88;;;3.85;72.19
46392;BME280;32098;49.448;7.904;2024-03-08T01:44:02;97967.47;;;3.64;72.73
46392;BME280;32098;49.448;7.904;2024-03-08T01:46:29;97968.28;;;3.65;72.96
46392;BME280;32098;49.448;7.904;2024-03-08T01:48:57;97956.31;;;3.77;72.72
46392;BME280;32098;49.448;7.904;2024-03-08T01:51:24;97961.59;;;3.91;71.65
46392;BME280;32098;49.448;7.904;2024-03-08T01:53:51;97959.88;;;3.84;71.99
46392;BME280;32098;49.448;7.904;2024-03-08T01:56:18;97951.88;;;3.63;72.55
46392;BME280;32098;49.448;7.904;2024-03-08T01:58:45;97952.84;;;3.62;72.80
46392;BME280;32098;49.448;7.904;2024-03-08T02:01:13;97951.31;;;3.52;73.26
46392;BME280;32098;49.448;7.904;2024-03-08T02:03:45;97953.22;;;3.59;72.79
46392;BME280;32098;49.448;7.904;2024-03-08T02:06:13;97947.06;;;3.66;72.54
46392;BME280;32098;49.448;7.904;2024-03-08T02:08:45;97932.28;;;3.65;72.55
46392;BME280;32098;49.448;7.904;2024-03-08T02:11:13;97941.69;;;3.60;72.65
46392;BME280;32098;49.448;7.904;2024-03-08T02:13:40;97931.53;;;3.57;72.83
46392;BME280;32098;49.448;7.904;2024-03-08T02:16:07;97945.31;;;3.59;72.87
46392;BME280;32098;49.448;7.904;2024-03-08T02:18:35;97934.72;;;3.67;72.69
46392;BME280;32098;49.448;7.904;2024-03-08T02:21:03;97928.75;;;3.73;72.07
46392;BME280;32098;49.448;7.904;2024-03-08T02:23:31;97930.34;;;3.44;73.17
46392;BME280;32098;49.448;7.904;2024-03-08T02:25:58;97936.22;;;3.46;73.11
46392;BME280;32098;49.448;7.904;2024-03-08T02:28:25;97917.94;;;3.53;72.37
46392;BME280;32098;49.448;7.904;2024-03-08T02:30:52;97924.44;;;3.57;72.43
46392;BME280;32098;49.448;7.904;2024-03-08T02:33:27;97917.22;;;3.22;73.76
46392;BME280;32098;49.448;7.904;2024-03-08T02:35:54;97915.44;;;3.37;73.20
46392;BME280;32098;49.448;7.904;2024-03-08T02:38:25;97908.31;;;3.45;73.02
46392;BME280;32098;49.448;7.904;2024-03-08T02:40:53;97910.19;;;3.37;72.89
46392;BME280;32098;49.448;7.904;2024-03-08T02:43:21;97901.84;;;3.48;72.83
46392;BME280;32098;49.448;7.904;2024-03-08T02:45:48;97900.03;;;3.48;72.62
46392;BME280;32098;49.448;7.904;2024-03-08T02:48:16;97908.19;;;3.53;72.39
46392;BME280;32098;49.448;7.904;2024-03-08T02:50:43;97901.66;;;3.49;72.56
46392;BME280;32098;49.448;7.904;2024-03-08T02:53:12;97906.63;;;3.30;73.09
46392;BME280;32098;49.448;7.904;2024-03-08T02:55:39;97903.66;;;3.33;73.20
46392;BME280;32098;49.448;7.904;2024-03-08T02:58:08;97903.53;;;3.26;73.17
46392;BME280;32098;49.448;7.904;2024-03-08T03:00:38;97905.81;;;3.29;73.08
46392;BME280;32098;49.448;7.904;2024-03-08T03:03:06;97907.75;;;3.35;72.89
46392;BME280;32098;49.448;7.904;2024-03-08T03:05:33;97903.09;;;3.37;72.82
46392;BME280;32098;49.448;7.904;2024-03-08T03:08:00;97895.63;;;3.26;72.85
46392;BME280;32098;49.448;7.904;2024-03-08T03:10:27;97892.81;;;3.13;73.31
46392;BME280;32098;49.448;7.904;2024-03-08T03:12:54;97872.16;;;2.87;73.63
46392;BME280;32098;49.448;7.904;2024-03-08T03:15:20;97890.66;;;2.94;73.85
46392;BME280;32098;49.448;7.904;2024-03-08T03:17:48;97890.03;;;2.92;73.97
46392;BME280;32098;49.448;7.904;2024-03-08T03:20:18;97895.38;;;2.99;73.62
46392;BME280;32098;49.448;7.904;2024-03-08T03:22:53;97887.50;;;2.99;73.28
46392;BME280;32098;49.448;7.904;2024-03-08T03:25:20;97873.66;;;3.05;73.09
46392;BME280;32098;49.448;7.904;2024-03-08T03:27:54;97880.09;;;3.02;73.13
46392;BME280;32098;49.448;7.904;2024-03-08T03:30:24;97887.34;;;3.00;73.45
46392;BME280;32098;49.448;7.904;2024-03-08T03:32:53;97874.34;;;2.99;73.16
46392;BME280;32098;49.448;7.904;2024-03-08T03:35:22;97874.66;;;2.81;73.82
46392;BME280;32098;49.448;7.904;2024-03-08T03:37:49;97872.41;;;2.78;73.74
46392;BME280;32098;49.448;7.904;2024-03-08T03:40:36;97876.59;;;2.87;73.69
46392;BME280;32098;49.448;7.904;2024-03-08T03:43:03;97873.88;;;2.80;73.50
46392;BME280;32098;49.448;7.904;2024-03-08T03:45:30;97874.84;;;2.79;73.75
46392;BME280;32098;49.448;7.904;2024-03-08T03:48:04;97877.25;;;2.66;74.01
46392;BME280;32098;49.448;7.904;2024-03-08T03:50:31;97864.44;;;2.63;74.13
46392;BME280;32098;49.448;7.904;2024-03-08T03:53:02;97862.00;;;2.62;74.13
46392;BME280;32098;49.448;7.904;2024-03-08T03:55:29;97862.00;;;2.62;74.12
46392;BME280;32098;49.448;7.904;2024-03-08T03:57:56;97861.78;;;2.49;74.64
46392;BME280;32098;49.448;7.904;2024-03-08T04:00:26;97848.94;;;2.54;74.13
46392;BME280;32098;49.448;7.904;2024-03-08T04:02:54;97857.81;;;2.53;74.26
46392;BME280;32098;49.448;7.904;2024-03-08T04:05:21;97854.31;;;2.60;74.19
46392;BME280;32098;49.448;7.904;2024-03-08T04:07:48;97847.59;;;2.58;73.61
46392;BME280;32098;49.448;7.904;2024-03-08T04:10:15;97843.50;;;2.33;74.52
46392;BME280;32098;49.448;7.904;2024-03-08T04:12:41;97833.75;;;2.41;74.32
46392;BME280;32098;49.448;7.904;2024-03-08T04:15:09;97858.50;;;2.47;74.41
46392;BME280;32098;49.448;7.904;2024-03-08T04:17:37;97855.25;;;2.45;74.23
46392;BME280;32098;49.448;7.904;2024-03-08T04:20:05;97855.25;;;2.45;74.17
46392;BME280;32098;49.448;7.904;2024-03-08T04:22:37;97861.47;;;2.44;73.93
46392;BME280;32098;49.448;7.904;2024-03-08T04:25:04;97848.53;;;2.42;74.52
46392;BME280;32098;49.448;7.904;2024-03-08T04:27:35;97852.78;;;2.66;73.29
46392;BME280;32098;49.448;7.904;2024-03-08T04:30:03;97850.53;;;2.63;73.18
46392;BME280;32098;49.448;7.904;2024-03-08T04:32:30;97843.53;;;2.55;73.32
46392;BME280;32098;49.448;7.904;2024-03-08T04:34:59;97844.41;;;2.48;73.66
46392;BME280;32098;49.448;7.904;2024-03-08T04:37:27;97834.22;;;2.45;73.74
46392;BME280;32098;49.448;7.904;2024-03-08T04:39:56;97839.81;;;2.42;73.92
46392;BME280;32098;49.448;7.904;2024-03-08T04:42:23;97841.63;;;2.41;73.73
46392;BME280;32098;49.448;7.904;2024-03-08T04:44:51;97842.28;;;2.43;73.78
46392;BME280;32098;49.448;7.904;2024-03-08T04:47:17;97838.66;;;2.44;74.00
46392;BME280;32098;49.448;7.904;2024-03-08T04:49:44;97826.25;;;2.38;73.51
46392;BME280;32098;49.448;7.904;2024-03-08T04:52:11;97833.94;;;2.40;74.07
46392;BME280;32098;49.448;7.904;2024-03-08T04:54:38;97833.00;;;2.33;73.91
46392;BME280;32098;49.448;7.904;2024-03-08T04:57:05;97834.47;;;2.35;74.05
46392;BME280;32098;49.448;7.904;2024-03-08T04:59:35;97817.00;;;2.19;74.29
46392;BME280;32098;49.448;7.904;2024-03-08T05:02:03;97830.78;;;2.21;74.45
46392;BME280;32098;49.448;7.904;2024-03-08T05:04:30;97825.16;;;2.24;74.20
46392;BME280;32098;49.448;7.904;2024-03-08T05:06:56;97826.56;;;2.12;74.93
46392;BME280;32098;49.448;7.904;2024-03-08T05:09:23;97811.44;;;2.14;75.06
46392;BME280;32098;49.448;7.904;2024-03-08T05:11:50;97814.31;;;2.05;75.24
46392;BME280;32098;49.448;7.904;2024-03-08T05:14:17;97816.59;;;2.08;75.71
46392;BME280;32098;49.448;7.904;2024-03-08T05:16:46;97821.13;;;2.14;74.80
46392;BME280;32098;49.448;7.904;2024-03-08T05:19:19;97822.78;;;2.15;75.32
46392;BME280;32098;49.448;7.904;2024-03-08T05:21:47;97814.16;;;1.98;75.51
46392;BME280;32098;49.448;7.904;2024-03-08T05:24:14;97815.31;;;1.96;75.53
46392;BME280;32098;49.448;7.904;2024-03-08T05:26:42;97818.50;;;2.14;75.32
46392;BME280;32098;49.448;7.904;2024-03-08T05:29:09;97815.94;;;2.06;75.37
46392;BME280;32098;49.448;7.904;2024-03-08T05:31:46;97813.38;;;1.98;75.82
46392;BME280;32098;49.448;7.904;2024-03-08T05:34:14;97801.44;;;1.87;75.79
46392;BME280;32098;49.448;7.904;2024-03-08T05:36:41;97818.13;;;1.94;76.36
46392;BME280;32098;49.448;7.904;2024-03-08T05:39:15;97812.53;;;1.97;76.22
46392;BME280;32098;49.448;7.904;2024-03-08T05:41:43;97816.84;;;1.90;76.18
46392;BME280;32098;49.448;7.904;2024-03-08T05:44:10;97810.94;;;1.88;76.18
46392;BME280;32098;49.448;7.904;2024-03-08T05:46:37;97816.09;;;2.04;75.97
46392;BME280;32098;49.448;7.904;2024-03-08T05:49:05;97817.28;;;2.02;75.97
46392;BME280;32098;49.448;7.904;2024-03-08T05:51:37;97814.53;;;1.95;75.78
46392;BME280;32098;49.448;7.904;2024-03-08T05:54:05;97819.97;;;2.62;84.05
46392;BME280;32098;49.448;7.904;2024-03-08T05:56:33;97812.00;;;3.07;87.98
46392;BME280;32098;49.448;7.904;2024-03-08T05:59:00;97813.19;;;3.48;83.19
46392;BME280;32098;49.448;7.904;2024-03-08T06:01:28;97796.66;;;2.96;73.78
46392;BME280;32098;49.448;7.904;2024-03-08T06:03:55;97804.69;;;2.65;73.90
46392;BME280;32098;49.448;7.904;2024-03-08T06:06:24;97807.91;;;2.53;74.33
46392;BME280;32098;49.448;7.904;2024-03-08T06:08:51;97809.19;;;2.57;74.16
46392;BME280;32098;49.448;7.904;2024-03-08T06:11:19;97812.44;;;2.13;75.54
46392;BME280;32098;49.448;7.904;2024-03-08T06:13:49;97810.97;;;2.34;75.53
46392;BME280;32098;49.448;7.904;2024-03-08T06:16:16;97816.31;;;2.26;75.71
46392;BME280;32098;49.448;7.904;2024-03-08T06:18:43;97808.06;;;2.29;75.07
46392;BME280;32098;49.448;7.904;2024-03-08T06:21:10;97814.28;;;2.36;75.19
46392;BME280;32098;49.448;7.904;2024-03-08T06:23:39;97815.06;;;2.36;75.34
46392;BME280;32098;49.448;7.904;2024-03-08T06:26:06;97808.44;;;2.26;75.53
46392;BME280;32098;49.448;7.904;2024-03-08T06:28:32;97812.28;;;2.38;75.20
46392;BME280;32098;49.448;7.904;2024-03-08T06:30:59;97806.03;;;2.39;74.93
46392;BME280;32098;49.448;7.904;2024-03-08T06:33:26;97796.28;;;2.47;74.42
46392;BME280;32098;49.448;7.904;2024-03-08T06:35:54;97790.22;;;2.47;74.40
46392;BME280;32098;49.448;7.904;2024-03-08T06:38:24;97805.16;;;2.46;74.76
46392;BME280;32098;49.448;7.904;2024-03-08T06:40:52;97812.56;;;2.65;74.40
46392;BME280;32098;49.448;7.904;2024-03-08T06:43:19;97800.72;;;2.84;73.57
46392;BME280;32098;49.448;7.904;2024-03-08T06:45:46;97804.53;;;2.81;73.25
46392;BME280;32098;49.448;7.904;2024-03-08T06:48:18;97803.28;;;2.92;73.36
46392;BME280;32098;49.448;7.904;2024-03-08T06:50:46;97799.00;;;2.91;72.63
46392;BME280;32098;49.448;7.904;2024-03-08T06:53:14;97808.03;;;2.74;73.28
46392;BME280;32098;49.448;7.904;2024-03-08T06:55:42;97803.50;;;2.68;73.83
46392;BME280;32098;49.448;7.904;2024-03-08T06:58:08;97810.84;;;2.72;74.06
46392;BME280;32098;49.448;7.904;2024-03-08T07:00:37;97807.47;;;2.64;74.19
46392;BME280;32098;49.448;7.904;2024-03-08T07:03:07;97806.72;;;2.78;74.03
46392;BME280;32098;49.448;7.904;2024-03-08T07:05:34;97804.88;;;2.78;73.61
46392;BME280;32098;49.448;7.904;2024-03-08T07:08:02;97800.56;;;2.85;74.12
46392;BME280;32098;49.448;7.904;2024-03-08T07:10:28;97796.09;;;2.86;73.60
46392;BME280;32098;49.448;7.904;2024-03-08T07:12:55;97787.38;;;2.71;74.04
46392;BME280;32098;49.448;7.904;2024-03-08T07:15:22;97798.13;;;2.61;74.82
46392;BME280;32098;49.448;7.904;2024-03-08T07:17:51;97753.44;;;2.47;74.57
46392;BME280;32098;49.448;7.904;2024-03-08T07:20:20;97791.72;;;2.64;74.96
46392;BME280;32098;49.448;7.904;2024-03-08T07:22:47;97793.81;;;2.46;75.45
46392;BME280;32098;49.448;7.904;2024-03-08T07:25:17;97785.19;;;2.60;75.37
46392;BME280;32098;49.448;7.904;2024-03-08T07:27:52;97783.97;;;2.48;75.97
46392;BME280;32098;49.448;7.904;2024-03-08T07:30:23;97780.69;;;2.46;75.98
46392;BME280;32098;49.448;7.904;2024-03-08T07:33:10;97777.59;;;2.65;75.81
46392;BME280;32098;49.448;7.904;2024-03-08T07:35:41;97778.63;;;2.56;75.13
46392;BME280;32098;49.448;7.904;2024-03-08T07:38:11;97783.75;;;2.72;74.86
46392;BME280;32098;49.448;7.904;2024-03-08T07:40:39;97778.50;;;2.72;74.83
46392;BME280;32098;49.448;7.904;2024-03-08T07:43:08;97779.94;;;2.60;75.08
46392;BME280;32098;49.448;7.904;2024-03-08T07:45:35;97787.75;;;2.68;74.27
46392;BME280;32098;49.448;7.904;2024-03-08T07:48:03;97780.84;;;2.67;75.26
46392;BME280;32098;49.448;7.904;2024-03-08T07:50:30;97774.50;;;2.76;75.08
46392;BME280;32098;49.448;7.904;2024-03-08T07:52:57;97783.25;;;2.91;74.01
46392;BME280;32098;49.448;7.904;2024-03-08T07:55:24;97782.75;;;3.10;73.89
46392;BME280;32098;49.448;7.904;2024-03-08T07:57:51;97773.66;;;2.98;73.27
46392;BME280;32098;49.448;7.904;2024-03-08T08:00:17;97772.72;;;2.91;74.14
46392;BME280;32098;49.448;7.904;2024-03-08T08:02:45;97775.41;;;3.06;73.72
46392;BME280;32098;49.448;7.904;2024-03-08T08:05:16;97764.13;;;3.26;73.47
46392;BME280;32098;49.448;7.904;2024-03-08T08:07:45;97768.28;;;2.92;73.92
46392;BME280;32098;49.448;7.904;2024-03-08T08:10:16;97771.88;;;3.13;73.52
46392;BME280;32098;49.448;7.904;2024-03-08T08:12:48;97768.56;;;3.11;72.98
46392;BME280;32098;49.448;7.904;2024-03-08T08:15:15;97766.91;;;2.81;74.22
46392;BME280;32098;49.448;7.904;2024-03-08T08:17:45;97762.22;;;2.91;74.43
46392;BME280;32098;49.448;7.904;2024-03-08T08:20:13;97760.41;;;3.06;74.25
46392;BME280;32098;49.448;7.904;2024-03-08T08:22:40;97762.88;;;3.08;74.00
46392;BME280;32098;49.448;7.904;2024-03-08T08:25:07;97762.69;;;3.24;73.83
46392;BME280;32098;49.448;7.904;2024-03-08T08:27:34;97759.41;;;3.22;73.77
46392;BME280;32098;49.448;7.904;2024-03-08T08:30:03;97747.09;;;3.22;72.76
46392;BME280;32098;49.448;7.904;2024-03-08T08:32:35;97743.47;;;3.23;73.22
46392;BME280;32098;49.448;7.904;2024-03-08T08:35:03;97747.56;;;3.26;72.91
46392;BME280;32098;49.448;7.904;2024-03-08T08:37:31;97746.75;;;3.25;73.01
46392;BME280;32098;49.448;7.904;2024-03-08T08:39:58;97742.28;;;3.11;73.45
46392;BME280;32098;49.448;7.904;2024-03-08T08:42:25;97734.31;;;3.19;73.53
46392;BME280;32098;49.448;7.904;2024-03-08T08:44:51;97732.22;;;3.29;72.61
46392;BME280;32098;49.448;7.904;2024-03-08T08:47:21;97736.13;;;3.19;73.21
46392;BME280;32098;49.448;7.904;2024-03-08T08:49:48;97735.94;;;3.20;73.25
46392;BME280;32098;49.448;7.904;2024-03-08T08:52:17;97740.28;;;3.42;72.89
46392;BME280;32098;49.448;7.904;2024-03-08T08:54:43;97740.53;;;3.47;72.45
46392;BME280;32098;49.448;7.904;2024-03-08T08:57:15;97735.19;;;3.41;72.54
46392;BME280;32098;49.448;7.904;2024-03-08T08:59:41;97733.66;;;3.32;72.28
46392;BME280;32098;49.448;7.904;2024-03-08T09:02:08;97747.63;;;3.47;72.33
46392;BME280;32098;49.448;7.904;2024-03-08T09:04:43;97735.38;;;3.90;71.39
46392;BME280;32098;49.448;7.904;2024-03-08T09:07:21;97718.19;;;3.94;70.61
46392;BME280;32098;49.448;7.904;2024-03-08T09:09:48;97721.25;;;3.97;69.75
46392;BME280;32098;49.448;7.904;2024-03-08T09:12:15;97708.91;;;3.98;69.54
46392;BME280;32098;49.448;7.904;2024-03-08T09:14:42;97716.19;;;3.96;70.76
46392;BME280;32098;49.448;7.904;2024-03-08T09:17:09;97711.94;;;4.16;69.89
46392;BME280;32098;49.448;7.904;2024-03-08T09:19:35;97706.75;;;4.50;69.28
46392;BME280;32098;49.448;7.904;2024-03-08T09:22:04;97705.44;;;4.67;68.46
46392;BME280;32098;49.448;7.904;2024-03-08T09:24:31;97714.78;;;4.70;68.24
46392;BME280;32098;49.448;7.904;2024-03-08T09:26:57;97695.56;;;5.04;66.85
46392;BME280;32098;49.448;7.904;2024-03-08T09:29:27;97686.16;;;5.29;67.40
46392;BME280;32098;49.448;7.904;2024-03-08T09:31:55;97703.25;;;5.39;65.73
46392;BME280;32098;49.448;7.904;2024-03-08T09:34:22;97689.59;;;5.23;65.78
46392;BME280;32098;49.448;7.904;2024-03-08T09:36:57;97693.78;;;5.11;65.77
46392;BME280;32098;49.448;7.904;2024-03-08T09:39:24;97695.19;;;5.07;65.98
46392;BME280;32098;49.448;7.904;2024-03-08T09:41:53;97699.44;;;5.08;66.87
46392;BME280;32098;49.448;7.904;2024-03-08T09:44:22;97696.38;;;5.45;65.87
46392;BME280;32098;49.448;7.904;2024-03-08T09:46:53;97692.53;;;5.54;65.28
46392;BME280;32098;49.448;7.904;2024-03-08T09:49:21;97696.22;;;5.12;64.96
46392;BME280;32098;49.448;7.904;2024-03-08T09:51:47;97691.56;;;5.14;65.64
46392;BME280;32098;49.448;7.904;2024-03-08T09:54:18;97689.06;;;5.00;64.83
46392;BME280;32098;49.448;7.904;2024-03-08T09:56:51;97697.81;;;4.79;66.50
46392;BME280;32098;49.448;7.904;2024-03-08T09:59:18;97687.47;;;4.77;66.05
46392;BME280;32098;49.448;7.904;2024-03-08T10:01:54;97690.06;;;4.43;67.61
46392;BME280;32098;49.448;7.904;2024-03-08T10:04:24;97677.91;;;4.42;67.82
46392;BME280;32098;49.448;7.904;2024-03-08T10:06:50;97675.75;;;4.52;67.32
46392;BME280;32098;49.448;7.904;2024-03-08T10:09:17;97672.25;;;4.73;66.94
46392;BME280;32098;49.448;7.904;2024-03-08T10:11:45;97677.91;;;4.76;66.93
46392;BME280;32098;49.448;7.904;2024-03-08T10:14:12;97672.34;;;4.58;67.01
46392;BME280;32098;49.448;7.904;2024-03-08T10:16:39;97674.56;;;4.61;67.11
46392;BME280;32098;49.448;7.904;2024-03-08T10:19:06;97680.81;;;4.54;68.17
46392;BME280;32098;49.448;7.904;2024-03-08T10:21:33;97673.19;;;4.65;67.56
46392;BME280;32098;49.448;7.904;2024-03-08T10:24:02;97664.75;;;4.49;67.83
46392;BME280;32098;49.448;7.904;2024-03-08T10:26:30;97663.41;;;4.59;67.45
46392;BME280;32098;49.448;7.904;2024-03-08T10:28:57;97657.81;;;4.41;68.19
46392;BME280;32098;49.448;7.904;2024-03-08T10:31:24;97656.59;;;4.71;68.52
46392;BME280;32098;49.448;7.904;2024-03-08T10:33:51;97656.72;;;4.85;67.93
46392;BME280;32098;49.448;7.904;2024-03-08T10:36:17;97648.16;;;4.82;67.23
46392;BME280;32098;49.448;7.904;2024-03-08T10:38:45;97657.91;;;4.54;68.98
46392;BME280;32098;49.448;7.904;2024-03-08T10:41:16;97663.13;;;4.20;69.14
46392;BME280;32098;49.448;7.904;2024-03-08T10:44:09;97651.16;;;4.45;69.12
46392;BME280;32098;49.448;7.904;2024-03-08T10:47:00;97645.28;;;4.77;67.73
46392;BME280;32098;49.448;7.904;2024-03-08T10:49:47;97644.81;;;5.02;67.28
46392;BME280;32098;49.448;7.904;2024-03-08T10:52:18;97644.47;;;5.11;66.25
46392;BME280;32098;49.448;7.904;2024-03-08T10:58:02;97627.66;;;5.19;65.96
46392;BME280;32098;49.448;7.904;2024-03-08T11:00:28;97626.56;;;4.94;66.98
46392;BME280;32098;49.448;7.904;2024-03-08T11:02:55;97620.09;;;5.03;67.13
46392;BME280;32098;49.448;7.904;2024-03-08T11:05:39;97625.78;;;5.06;66.09
46392;BME280;32098;49.448;7.904;2024-03-08T11:10:51;97624.44;;;4.82;66.74
46392;BME280;32098;49.448;7.904;2024-03-08T11:13:38;97619.44;;;4.94;66.03
46392;BME280;32098;49.448;7.904;2024-03-08T11:16:08;97628.41;;;5.00;66.21
46392;BME280;32098;49.448;7.904;2024-03-08T11:18:37;97623.34;;;5.05;66.10
46392;BME280;32098;49.448;7.904;2024-03-08T11:21:09;97616.88;;;5.14;66.70
46392;BME280;32098;49.448;7.904;2024-03-08T11:23:40;97618.31;;;5.16;65.98
46392;BME280;32098;49.448;7.904;2024-03-08T11:26:19;97609.63;;;5.29;65.72
46392;BME280;32098;49.448;7.904;2024-03-08T11:28:46;97605.81;;;5.38;66.20
46392;BME280;32098;49.448;7.904;2024-03-08T11:31:24;97610.31;;;5.57;65.70
46392;BME280;32098;49.448;7.904;2024-03-08T11:33:53;97615.00;;;5.55;64.30
46392;BME280;32098;49.448;7.904;2024-03-08T11:36:24;97614.19;;;5.61;64.98
46392;BME280;32098;49.448;7.904;2024-03-08T11:38:52;97612.41;;;5.81;64.56
46392;BME280;32098;49.448;7.904;2024-03-08T11:41:21;97616.44;;;5.77;64.29
46392;BME280;32098;49.448;7.904;2024-03-08T11:43:49;97614.78;;;5.50;65.29
46392;BME280;32098;49.448;7.904;2024-03-08T11:46:17;97604.34;;;5.29;65.33
46392;BME280;32098;49.448;7.904;2024-03-08T11:48:47;97603.28;;;5.10;66.01
46392;BME280;32098;49.448;7.904;2024-03-08T11:51:15;97602.75;;;5.28;67.00
46392;BME280;32098;49.448;7.904;2024-03-08T11:53:42;97604.59;;;5.47;65.83
46392;BME280;32098;49.448;7.904;2024-03-08T11:56:14;97599.44;;;5.13;66.34
46392;BME280;32098;49.448;7.904;2024-03-08T11:58:41;97610.63;;;4.80;66.77
46392;BME280;32098;49.448;7.904;2024-03-08T12:01:09;97599.44;;;5.13;67.29
46392;BME280;32098;49.448;7.904;2024-03-08T12:03:40;97594.59;;;5.23;66.25
46392;BME280;32098;49.448;7.904;2024-03-08T12:06:09;97592.28;;;4.94;66.80
46392;BME280;32098;49.448;7.904;2024-03-08T12:08:36;97592.56;;;4.77;67.83
46392;BME280;32098;49.448;7.904;2024-03-08T12:11:06;97588.78;;;4.87;68.16
46392;BME280;32098;49.448;7.904;2024-03-08T12:13:34;97578.50;;;4.98;67.64
46392;BME280;32098;49.448;7.904;2024-03-08T12:16:04;97577.28;;;5.07;66.91
46392;BME280;32098;49.448;7.904;2024-03-08T12:18:36;97569.38;;;5.07;66.45
46392;BME280;32098;49.448;7.904;2024-03-08T12:21:08;97576.34;;;5.28;66.04
46392;BME280;32098;49.448;7.904;2024-03-08T12:23:38;97566.81;;;5.27;66.49
46392;BME280;32098;49.448;7.904;2024-03-08T12:26:15;97569.00;;;5.10;66.48
46392;BME280;32098;49.448;7.904;2024-03-08T12:28:43;97577.88;;;4.96;67.49
46392;BME280;32098;49.448;7.904;2024-03-08T12:31:16;97565.72;;;5.02;67.31
46392;BME280;32098;49.448;7.904;2024-03-08T12:33:55;97559.22;;;4.98;67.43
46392;BME280;32098;49.448;7.904;2024-03-08T12:36:25;97558.13;;;5.46;67.67
46392;BME280;32098;49.448;7.904;2024-03-08T12:38:53;97554.09;;;5.83;65.62
46392;BME280;32098;49.448;7.904;2024-03-08T12:41:23;97543.13;;;5.66;65.31
46392;BME280;32098;49.448;7.904;2024-03-08T12:43:50;97531.13;;;5.57;65.37
46392;BME280;32098;49.448;7.904;2024-03-08T12:46:20;97516.09;;;5.38;64.95
46392;BME280;32098;49.448;7.904;2024-03-08T12:48:48;97515.06;;;5.52;65.62
46392;BME280;32098;49.448;7.904;2024-03-08T12:51:19;97522.59;;;5.75;64.66
46392;BME280;32098;49.448;7.904;2024-03-08T12:53:47;97510.19;;;5.95;64.43
46392;BME280;32098;49.448;7.904;2024-03-08T12:56:19;97517.31;;;5.62;64.69
46392;BME280;32098;49.448;7.904;2024-03-08T12:58:47;97497.63;;;5.90;64.28
46392;BME280;32098;49.448;7.904;2024-03-08T13:01:13;97505.13;;;5.93;63.85
46392;BME280;32098;49.448;7.904;2024-03-08T13:03:42;97479.69;;;6.19;63.62
46392;BME280;32098;49.448;7.904;2024-03-08T13:06:10;97494.34;;;6.01;62.85
46392;BME280;32098;49.448;7.904;2024-03-08T13:08:37;97451.09;;;5.96;64.12
46392;BME280;32098;49.448;7.904;2024-03-08T13:11:06;97478.44;;;6.28;62.88
46392;BME280;32098;49.448;7.904;2024-03-08T13:13:34;97480.00;;;6.42;62.21
46392;BME280;32098;49.448;7.904;2024-03-08T13:16:03;97472.34;;;6.34;62.48
46392;BME280;32098;49.448;7.904;2024-03-08T13:18:30;97469.88;;;6.39;62.77
46392;BME280;32098;49.448;7.904;2024-03-08T13:20:57;97457.84;;;6.43;62.80
46392;BME280;32098;49.448;7.904;2024-03-08T13:23:23;97446.19;;;6.57;62.55